Time;durP1;ratioP1;P1;durP2;ratioP2;P2;SDS_P1;SDS_P2;PMS_P1;PMS_P2;Temp;Humidity;BMP_temperature;BMP_pressure;BME280_temperature;BME280_humidity;BME280_pressure;Samples;Min_cycle;Max_cycle;Signal;HPM_P1;HPM_P2
2021/08/12 00:02:02;;;;;;;16.13;10.63;;;;;;;23.56;64.11;98887.03;5030443;28;20028;-50
2021/08/12 00:04:29;;;;;;;11.63;7.93;;;;;;;23.42;65.02;98881.56;5030495;28;20124;-50
2021/08/12 00:06:55;;;;;;;15.68;7.75;;;;;;;23.48;64.78;98880.44;5031606;28;20025;-50
2021/08/12 00:09:20;;;;;;;9.18;7.50;;;;;;;23.61;64.28;98881.66;5031792;28;20022;-50
2021/08/12 00:11:46;;;;;;;19.38;15.38;;;;;;;23.73;63.96;98882.06;5031676;28;20025;-50
2021/08/12 00:14:12;;;;;;;10.05;7.35;;;;;;;23.72;63.74;98877.81;5031727;28;20510;-50
2021/08/12 00:16:38;;;;;;;9.27;8.27;;;;;;;23.63;63.74;98871.44;5031683;28;20022;-50
2021/08/12 00:19:04;;;;;;;12.80;7.60;;;;;;;23.37;64.17;98873.53;5031678;28;20041;-50
2021/08/12 00:21:30;;;;;;;9.57;8.02;;;;;;;22.96;65.24;98872.97;5031707;28;20412;-50
2021/08/12 00:23:57;;;;;;;13.30;8.30;;;;;;;22.68;66.07;98872.63;5031399;28;20059;-50
2021/08/12 00:26:22;;;;;;;9.32;8.18;;;;;;;22.61;66.36;98880.94;5049988;28;20040;-50
2021/08/12 00:28:48;;;;;;;8.43;7.65;;;;;;;22.76;66.22;98876.56;5035618;28;20439;-50
2021/08/12 00:31:15;;;;;;;13.82;8.07;;;;;;;22.74;65.71;98869.63;5050945;28;20029;-50
2021/08/12 00:33:40;;;;;;;10.50;8.70;;;;;;;22.58;66.47;98870.78;5035725;28;20036;-50
2021/08/12 00:36:06;;;;;;;11.68;8.43;;;;;;;22.49;66.83;98877.78;5050868;28;20025;-50
2021/08/12 00:38:32;;;;;;;12.10;8.95;;;;;;;22.56;66.45;98869.44;5034200;28;20025;-50
2021/08/12 00:40:57;;;;;;;15.57;13.98;;;;;;;22.65;66.33;98867.81;5035314;28;20029;-50
2021/08/12 00:43:23;;;;;;;15.05;10.88;;;;;;;22.74;66.08;98855.47;5035384;28;20101;-50
2021/08/12 00:45:49;;;;;;;11.15;7.70;;;;;;;22.70;65.88;98857.88;5035233;28;20028;-50
2021/08/12 00:48:14;;;;;;;11.25;9.25;;;;;;;22.73;66.19;98860.00;5035292;28;20028;-50
2021/08/12 00:50:41;;;;;;;7.80;6.68;;;;;;;22.79;65.60;98843.94;5050502;28;20036;-50
2021/08/12 00:53:08;;;;;;;8.20;7.03;;;;;;;22.77;65.53;98844.19;5035189;28;20032;-50
2021/08/12 00:55:37;;;;;;;12.30;7.55;;;;;;;22.83;65.67;98843.09;5050399;28;20511;-50
2021/08/12 00:58:03;;;;;;;9.50;7.88;;;;;;;22.85;65.17;98848.97;5035297;28;20378;-50
2021/08/12 01:00:31;;;;;;;8.55;7.47;;;;;;;22.76;65.43;98863.19;5035036;28;20487;-50
2021/08/12 01:02:57;;;;;;;16.75;13.13;;;;;;;22.38;66.40;98855.63;5034916;28;20064;-51
2021/08/12 01:05:23;;;;;;;10.80;8.85;;;;;;;22.04;67.73;98861.59;5034878;28;20057;-50
2021/08/12 01:08:24;;;;;;;10.38;8.30;;;;;;;21.74;69.30;98862.44;5034880;28;20029;-50
2021/08/12 01:10:57;;;;;;;13.32;8.52;;;;;;;21.55;70.10;98867.53;5024609;28;20045;-50
2021/08/12 01:13:31;;;;;;;13.98;8.40;;;;;;;21.46;70.46;98861.91;5033556;28;20044;-50
2021/08/12 01:16:00;;;;;;;11.77;8.88;;;;;;;21.45;71.02;98862.19;5034848;28;20087;-50
2021/08/12 01:18:32;;;;;;;10.32;8.48;;;;;;;21.34;70.93;98862.16;5035018;28;20399;-50
2021/08/12 01:21:16;;;;;;;13.73;8.52;;;;;;;21.55;70.82;98875.56;5034800;28;20025;-50
2021/08/12 01:23:42;;;;;;;12.98;7.85;;;;;;;21.75;69.82;98866.69;5049790;28;20518;-49
2021/08/12 01:26:09;;;;;;;8.68;7.70;;;;;;;21.76;69.30;98870.97;5034535;28;20026;-50
2021/08/12 01:28:43;;;;;;;12.93;8.68;;;;;;;21.64;69.58;98871.25;5034580;28;20487;-50
2021/08/12 01:31:36;;;;;;;11.25;7.68;;;;;;;21.53;70.14;98867.81;5034820;28;20061;-50
2021/08/12 01:34:17;;;;;;;8.70;7.78;;;;;;;21.62;70.08;98870.72;5032529;28;20570;-50
2021/08/12 01:36:46;;;;;;;11.50;7.38;;;;;;;22.00;69.24;98871.22;5033964;28;20018;-50
2021/08/12 01:39:15;;;;;;;12.57;8.07;;;;;;;22.42;67.94;98871.94;5034648;28;20071;-51
2021/08/12 01:41:42;;;;;;;13.10;7.88;;;;;;;22.75;67.27;98857.06;5049540;28;20025;-50
2021/08/12 01:44:09;;;;;;;10.32;7.40;;;;;;;23.10;66.14;98856.06;5034288;28;20021;-50
2021/08/12 01:46:37;;;;;;;8.93;6.90;;;;;;;23.12;64.79;98847.78;5034130;28;20024;-50
2021/08/12 01:49:04;;;;;;;8.70;7.70;;;;;;;22.67;65.92;98850.41;5034118;28;20033;-50
2021/08/12 01:51:31;;;;;;;9.63;8.73;;;;;;;22.35;67.10;98858.84;5034153;28;20025;-50
2021/08/12 01:53:59;;;;;;;12.18;9.07;;;;;;;22.29;67.44;98873.31;5049372;28;20021;-50
2021/08/12 01:56:27;;;;;;;18.33;16.60;;;;;;;22.49;67.36;98865.19;5049254;28;20399;-50
2021/08/12 01:58:58;;;;;;;7.53;6.75;;;;;;;22.89;66.26;98873.31;5033988;28;20025;-50
2021/08/12 02:01:24;;;;;;;12.98;8.07;;;;;;;22.98;65.47;98863.63;5033976;28;20033;-50
2021/08/12 02:03:51;;;;;;;9.98;9.00;;;;;;;22.59;65.86;98856.31;5034107;28;20453;-50
2021/08/12 02:06:20;;;;;;;10.25;7.82;;;;;;;22.16;66.99;98865.84;5033731;28;20427;-50
2021/08/12 02:08:46;;;;;;;13.05;7.63;;;;;;;21.92;67.98;98877.13;5033757;28;20723;-50
2021/08/12 02:11:12;;;;;;;16.88;8.73;;;;;;;21.96;68.12;98874.72;5049335;28;20064;-50
2021/08/12 02:13:37;;;;;;;8.98;7.50;;;;;;;21.86;68.07;98867.50;5033686;28;20096;-50
2021/08/12 02:16:08;;;;;;;9.57;7.63;;;;;;;21.68;68.57;98869.66;5048986;28;20045;-50
2021/08/12 02:18:38;;;;;;;9.30;7.63;;;;;;;21.62;69.01;98867.25;5048310;28;20044;-49
2021/08/12 02:21:10;;;;;;;9.15;7.47;;;;;;;21.57;68.85;98865.41;5048762;28;20036;-50
2021/08/12 02:23:39;;;;;;;10.40;8.23;;;;;;;21.46;69.08;98861.13;5032019;28;20602;-50
2021/08/12 02:26:14;;;;;;;12.98;8.13;;;;;;;21.34;69.51;98861.34;5033284;28;20025;-50
2021/08/12 02:28:43;;;;;;;12.10;8.75;;;;;;;21.22;70.33;98858.94;5033467;28;20036;-50
2021/08/12 02:31:14;;;;;;;10.18;7.75;;;;;;;21.25;70.17;98858.44;5033592;28;20430;-50
2021/08/12 02:33:40;;;;;;;12.20;10.88;;;;;;;21.27;70.28;98866.16;5033343;28;20037;-51
2021/08/12 02:36:09;;;;;;;9.70;8.80;;;;;;;21.22;70.48;98864.28;5033266;28;20036;-50
2021/08/12 02:38:37;;;;;;;10.23;7.95;;;;;;;21.11;70.95;98858.13;5033224;28;20029;-51
2021/08/12 02:41:05;;;;;;;9.25;8.10;;;;;;;21.07;70.94;98858.94;5033131;28;20060;-52
2021/08/12 02:43:35;;;;;;;16.95;9.00;;;;;;;21.09;70.57;98854.94;5031783;28;20029;-52
2021/08/12 02:46:03;;;;;;;13.63;9.00;;;;;;;21.16;70.64;98860.00;5032927;28;20116;-52
2021/08/12 02:48:31;;;;;;;19.95;18.25;;;;;;;21.31;70.31;98852.03;5032509;28;20033;-52
2021/08/12 02:50:59;;;;;;;11.30;8.68;;;;;;;21.31;70.02;98853.91;5048262;28;20047;-52
2021/08/12 02:53:25;;;;;;;13.40;8.15;;;;;;;21.33;69.96;98857.88;5048205;28;20406;-52
2021/08/12 02:55:52;;;;;;;11.77;8.70;;;;;;;21.45;69.74;98860.34;5032875;28;20041;-52
2021/08/12 02:58:20;;;;;;;12.00;7.70;;;;;;;21.43;69.33;98856.31;5032881;28;20033;-52
2021/08/12 03:00:46;;;;;;;12.32;8.43;;;;;;;21.22;69.78;98858.94;5032796;28;20570;-53
2021/08/12 03:03:12;;;;;;;14.95;8.30;;;;;;;20.92;70.54;98857.81;5032807;28;20108;-52
2021/08/12 03:05:40;;;;;;;8.38;7.60;;;;;;;20.83;70.97;98853.28;5032683;28;20022;-52
2021/08/12 03:08:12;;;;;;;14.98;8.05;;;;;;;20.77;71.10;98855.13;5032938;28;20030;-52
2021/08/12 03:10:40;;;;;;;10.57;8.15;;;;;;;20.68;71.20;98859.38;5032652;28;20021;-52
2021/08/12 03:13:06;;;;;;;11.45;7.75;;;;;;;20.72;71.31;98858.56;5032612;28;20033;-52
2021/08/12 03:15:34;;;;;;;9.27;7.63;;;;;;;20.81;71.35;98852.75;5032517;28;20025;-52
2021/08/12 03:18:00;;;;;;;11.10;8.60;;;;;;;20.81;71.29;98858.88;5032512;28;20446;-52
2021/08/12 03:20:28;;;;;;;12.40;7.95;;;;;;;20.87;71.37;98857.84;5032330;28;20033;-52
2021/08/12 03:22:55;;;;;;;13.20;8.48;;;;;;;20.80;71.53;98859.94;5032149;28;20593;-52
2021/08/12 03:25:21;;;;;;;16.88;9.65;;;;;;;20.84;71.59;98861.00;5030958;28;20515;-52
2021/08/12 03:27:47;;;;;;;15.63;9.52;;;;;;;21.20;71.11;98860.28;5032357;28;20029;-52
2021/08/12 03:30:14;;;;;;;14.57;9.77;;;;;;;21.50;69.59;98856.84;5032211;28;20115;-52
2021/08/12 03:32:40;;;;;;;14.95;9.70;;;;;;;21.57;69.18;98854.72;5047549;28;20372;-52
2021/08/12 03:35:06;;;;;;;11.82;8.30;;;;;;;21.36;69.33;98853.88;5047573;28;20029;-52
2021/08/12 03:37:31;;;;;;;9.35;8.30;;;;;;;21.09;69.87;98854.94;5047403;28;20518;-52
2021/08/12 03:39:57;;;;;;;12.60;8.68;;;;;;;20.91;70.38;98858.91;5047513;28;20036;-53
2021/08/12 03:42:23;;;;;;;13.73;8.77;;;;;;;20.74;71.01;98861.00;5030750;28;20018;-52
2021/08/12 03:44:49;;;;;;;10.15;8.82;;;;;;;20.63;71.49;98868.16;5032238;28;20091;-52
2021/08/12 03:47:18;;;;;;;15.30;10.45;;;;;;;20.64;71.89;98869.75;5031996;28;20022;-52
2021/08/12 03:49:44;;;;;;;16.35;8.55;;;;;;;20.82;71.50;98867.69;5032226;28;20121;-52
2021/08/12 03:52:09;;;;;;;13.07;9.82;;;;;;;20.89;71.05;98863.72;5031952;28;20420;-52
2021/08/12 03:54:36;;;;;;;18.42;15.07;;;;;;;20.88;70.93;98862.09;5047247;28;20029;-52
2021/08/12 03:57:05;;;;;;;11.65;9.93;;;;;;;20.99;70.80;98870.09;5031932;28;20026;-51
2021/08/12 03:59:31;;;;;;;10.35;8.18;;;;;;;20.98;70.37;98860.50;5031671;28;20049;-51
2021/08/12 04:01:57;;;;;;;10.80;8.13;;;;;;;20.83;70.83;98861.28;5047096;28;20067;-52
2021/08/12 04:04:22;;;;;;;12.43;8.45;;;;;;;20.69;71.30;98858.31;5047150;28;20041;-52
2021/08/12 04:06:48;;;;;;;9.98;8.48;;;;;;;20.57;71.77;98863.06;5031746;28;20075;-52
2021/08/12 04:09:14;;;;;;;11.90;8.00;;;;;;;20.45;72.27;98852.59;5031797;28;20064;-52
2021/08/12 04:11:40;;;;;;;13.60;9.07;;;;;;;20.36;72.55;98849.63;5030397;28;20022;-52
2021/08/12 04:14:06;;;;;;;14.63;10.15;;;;;;;20.29;72.82;98851.75;5047067;28;20029;-52
2021/08/12 04:16:32;;;;;;;11.30;9.43;;;;;;;20.19;72.89;98847.16;5046998;28;20025;-52
2021/08/12 04:18:58;;;;;;;13.93;10.00;;;;;;;20.23;73.19;98850.13;5031655;28;20495;-52
2021/08/12 04:21:23;;;;;;;12.45;11.00;;;;;;;20.31;72.81;98857.59;5031636;28;20037;-53
2021/08/12 04:23:49;;;;;;;13.25;8.38;;;;;;;20.42;72.28;98856.56;5030119;28;20520;-52
2021/08/12 04:26:14;;;;;;;11.68;10.00;;;;;;;20.46;72.13;98854.19;5031462;28;20072;-52
2021/08/12 04:28:41;;;;;;;11.63;8.32;;;;;;;20.46;71.99;98849.66;5031591;28;20033;-52
2021/08/12 04:31:07;;;;;;;22.40;17.45;;;;;;;20.36;72.24;98849.63;5046893;28;20376;-52
2021/08/12 04:33:32;;;;;;;36.00;32.47;;;;;;;20.44;72.15;98849.13;5030150;28;20032;-52
2021/08/12 04:35:59;;;;;;;11.70;7.88;;;;;;;20.60;71.66;98854.53;5031566;28;20037;-52
2021/08/12 04:38:26;;;;;;;15.85;7.70;;;;;;;20.50;71.68;98863.28;5030187;28;20096;-52
2021/08/12 04:40:55;;;;;;;12.30;9.32;;;;;;;20.41;71.81;98859.53;5031443;28;20026;-52
2021/08/12 04:43:21;;;;;;;15.57;10.48;;;;;;;20.40;71.93;98858.69;5046688;28;20048;-52
2021/08/12 04:45:47;;;;;;;16.77;11.57;;;;;;;20.56;71.76;98859.56;5046694;28;20499;-52
2021/08/12 04:48:15;;;;;;;11.05;8.43;;;;;;;20.65;71.33;98862.56;5031413;28;20479;-52
2021/08/12 04:50:41;;;;;;;10.27;8.32;;;;;;;20.50;71.44;98853.44;5031277;28;20025;-52
2021/08/12 04:53:06;;;;;;;26.58;10.90;;;;;;;20.44;71.46;98853.66;5031345;28;20018;-52
2021/08/12 04:55:32;;;;;;;20.77;9.10;;;;;;;20.45;71.79;98848.06;5030022;28;20026;-52
2021/08/12 04:57:58;;;;;;;29.58;9.80;;;;;;;20.50;71.62;98841.94;5031305;28;20031;-52
2021/08/12 05:00:24;;;;;;;16.80;8.40;;;;;;;20.59;71.60;98847.63;5046554;28;20060;-52
2021/08/12 05:02:50;;;;;;;11.27;8.15;;;;;;;20.86;71.14;98847.41;5030014;28;20022;-52
2021/08/12 05:05:16;;;;;;;13.68;9.90;;;;;;;21.31;69.67;98844.00;5031145;28;20021;-52
2021/08/12 05:07:41;;;;;;;14.20;8.27;;;;;;;21.72;68.52;98846.69;5031301;28;20013;-52
2021/08/12 05:10:07;;;;;;;23.88;18.10;;;;;;;22.33;67.00;98840.41;5031103;28;20511;-52
2021/08/12 05:12:33;;;;;;;43.22;33.90;;;;;;;23.20;64.82;98839.13;5049645;28;20026;-52
2021/08/12 05:14:59;;;;;;;17.67;8.75;;;;;;;24.21;61.72;98835.78;5050459;28;20115;-53
2021/08/12 05:17:26;;;;;;;45.38;11.50;;;;;;;24.96;59.58;98836.16;5050042;28;20024;-53
2021/08/12 05:19:51;;;;;;;31.27;10.18;;;;;;;25.68;57.46;98844.69;5034662;28;20072;-52
2021/08/12 05:22:21;;;;;;;17.80;7.47;;;;;;;26.38;55.33;98847.41;5034416;28;20084;-52
2021/08/12 05:24:47;;;;;;;61.20;44.30;;;;;;;27.00;53.89;98846.91;5034683;28;20067;-52
2021/08/12 05:27:13;;;;;;;27.90;17.00;;;;;;;27.47;54.18;98847.44;5034593;28;20112;-52
2021/08/12 05:29:38;;;;;;;40.47;9.63;;;;;;;27.69;52.85;98850.09;5034576;28;20514;-52
2021/08/12 05:32:04;;;;;;;34.95;8.30;;;;;;;27.66;52.16;98853.41;5034709;28;20423;-52
2021/08/12 05:34:33;;;;;;;20.58;7.63;;;;;;;27.39;51.65;98861.66;5049837;28;20087;-52
2021/08/12 05:37:01;;;;;;;22.35;17.92;;;;;;;27.22;52.70;98854.22;5033117;28;20025;-52
2021/08/12 05:39:28;;;;;;;21.40;11.85;;;;;;;27.68;51.59;98850.41;5049721;28;20036;-52
2021/08/12 05:41:53;;;;;;;436.65;393.05;;;;;;;28.21;50.31;98854.13;5049918;28;20029;-52
2021/08/12 05:44:19;;;;;;;375.25;289.83;;;;;;;28.80;48.36;98851.91;5049566;28;20051;-52
2021/08/12 05:46:45;;;;;;;540.83;468.73;;;;;;;29.38;46.87;98849.81;5034141;28;20018;-52
2021/08/12 05:49:11;;;;;;;578.97;447.73;;;;;;;29.83;45.71;98854.03;5034074;28;20021;-52
2021/08/12 05:51:37;;;;;;;354.65;230.90;;;;;;;30.21;44.70;98853.22;5034087;28;20561;-52
2021/08/12 05:54:06;;;;;;;382.25;342.05;;;;;;;30.58;43.60;98853.50;5034119;28;20026;-52
2021/08/12 05:56:31;;;;;;;452.90;369.40;;;;;;;30.98;42.72;98856.56;5034027;28;20438;-52
2021/08/12 05:58:57;;;;;;;407.67;330.38;;;;;;;31.37;41.69;98848.22;5032934;28;20026;-52
2021/08/12 06:01:23;;;;;;;92.72;61.20;;;;;;;31.74;40.66;98862.72;5033937;28;20072;-52
2021/08/12 06:03:48;;;;;;;69.28;62.03;;;;;;;32.13;39.59;98851.56;5049308;28;20036;-52
2021/08/12 06:06:15;;;;;;;188.50;167.93;;;;;;;32.48;39.06;98862.75;5049086;28;20579;-52
2021/08/12 06:08:41;;;;;;;315.17;283.27;;;;;;;32.77;38.46;98863.63;5033866;28;20033;-51
2021/08/12 06:11:07;;;;;;;125.95;96.65;;;;;;;33.14;37.55;98861.59;5033744;28;20522;-52
2021/08/12 06:13:33;;;;;;;52.45;36.72;;;;;;;33.63;36.79;98855.91;5049161;28;20025;-51
2021/08/12 06:16:00;;;;;;;39.28;30.10;;;;;;;34.05;35.86;98860.03;5049048;28;20460;-52
2021/08/12 06:18:26;;;;;;;66.63;58.88;;;;;;;34.22;35.55;98869.78;5033862;28;20373;-50
2021/08/12 06:20:52;;;;;;;73.20;65.30;;;;;;;34.39;35.60;98874.88;5033572;28;20113;-50
2021/08/12 06:23:18;;;;;;;13.75;9.88;;;;;;;34.62;34.88;98869.53;5032042;28;20045;-50
2021/08/12 06:25:44;;;;;;;12.93;7.63;;;;;;;34.87;34.69;98863.03;5033598;28;20112;-50
2021/08/12 06:28:10;;;;;;;557.88;465.35;;;;;;;34.87;34.54;98855.63;5048772;28;20028;-50
2021/08/12 06:30:36;;;;;;;801.10;597.00;;;;;;;35.15;34.16;98858.16;5033339;28;20510;-50
2021/08/12 06:33:03;;;;;;;225.40;148.50;;;;;;;35.54;33.70;98857.34;5048674;28;20032;-50
2021/08/12 06:35:32;;;;;;;33.78;20.65;;;;;;;35.91;32.79;98851.34;5033547;28;20037;-50
2021/08/12 06:37:58;;;;;;;71.38;52.95;;;;;;;36.18;32.65;98854.88;5033465;28;20385;-50
2021/08/12 06:40:25;;;;;;;143.18;125.07;;;;;;;36.43;31.86;98854.47;5033047;28;20097;-50
2021/08/12 06:42:52;;;;;;;412.52;344.63;;;;;;;36.95;31.31;98858.28;5033080;28;20033;-50
2021/08/12 06:45:22;;;;;;;583.03;391.60;;;;;;;37.54;30.69;98864.78;5033056;28;20021;-51
2021/08/12 06:47:49;;;;;;;990.63;637.60;;;;;;;37.69;30.11;98864.94;5033061;28;20013;-50
2021/08/12 06:50:17;;;;;;;698.70;456.38;;;;;;;37.76;30.06;98865.78;5033217;28;20108;-50
2021/08/12 06:52:43;;;;;;;277.70;221.32;;;;;;;37.82;29.36;98874.44;5048248;28;20025;-50
2021/08/12 06:55:09;;;;;;;431.50;368.85;;;;;;;37.84;29.86;98871.34;5032974;28;20028;-50
2021/08/12 06:57:35;;;;;;;412.25;340.63;;;;;;;37.92;29.75;98878.44;5031578;28;20032;-50
2021/08/12 07:00:01;;;;;;;813.45;672.40;;;;;;;38.05;30.07;98884.41;5031507;28;20037;-50
2021/08/12 07:02:26;;;;;;;614.80;499.60;;;;;;;38.32;29.40;98869.34;5032938;28;20040;-50
2021/08/12 07:04:52;;;;;;;622.58;553.67;;;;;;;38.09;29.69;98871.53;5048033;28;20108;-50
2021/08/12 07:07:18;;;;;;;460.40;356.02;;;;;;;37.94;29.25;98876.13;5048231;28;20491;-50
2021/08/12 07:09:44;;;;;;;266.38;150.43;;;;;;;37.90;30.18;98878.03;5032664;28;20030;-50
2021/08/12 07:12:10;;;;;;;270.83;162.80;;;;;;;38.20;29.78;98886.13;5032533;28;20109;-52
2021/08/12 07:14:36;;;;;;;74.85;33.65;;;;;;;38.30;29.33;98888.16;5032607;28;20044;-52
2021/08/12 07:17:02;;;;;;;43.80;21.73;;;;;;;38.62;29.71;98890.31;5032448;28;20022;-52
2021/08/12 07:19:28;;;;;;;24.85;12.00;;;;;;;38.65;29.04;98894.25;5032521;28;20091;-52
2021/08/12 07:21:54;;;;;;;17.23;7.78;;;;;;;38.69;29.57;98906.81;5032264;28;20025;-52
2021/08/12 07:24:20;;;;;;;24.25;10.75;;;;;;;38.85;29.23;98901.00;5047762;28;20033;-52
2021/08/12 07:26:48;;;;;;;17.77;6.57;;;;;;;39.30;27.82;98903.53;5032515;28;20105;-52
2021/08/12 07:29:15;;;;;;;19.13;7.00;;;;;;;39.38;27.22;98899.63;5032567;28;20025;-52
2021/08/12 07:31:41;;;;;;;19.92;6.22;;;;;;;39.34;26.99;98904.31;5047899;28;20026;-52
2021/08/12 07:34:08;;;;;;;10.88;5.53;;;;;;;39.61;26.94;98904.03;5047112;28;20025;-53
2021/08/12 07:36:35;;;;;;;23.40;6.53;;;;;;;39.58;27.55;98897.31;5032216;28;20068;-52
2021/08/12 07:39:05;;;;;;;17.80;6.82;;;;;;;40.37;26.85;98902.06;5032420;28;20391;-52
2021/08/12 07:41:33;;;;;;;21.98;7.88;;;;;;;41.22;25.27;98903.00;5032083;28;20036;-53
2021/08/12 07:43:58;;;;;;;19.48;7.97;;;;;;;41.75;25.03;98910.13;5032382;28;20030;-52
2021/08/12 07:46:24;;;;;;;32.30;8.27;;;;;;;42.06;24.60;98913.84;5030611;28;20517;-52
2021/08/12 07:48:50;;;;;;;16.92;6.57;;;;;;;42.56;24.12;98918.13;5032060;28;20129;-53
2021/08/12 07:51:16;;;;;;;26.90;7.55;;;;;;;43.02;24.83;98919.53;5047244;28;20499;-52
2021/08/12 07:53:42;;;;;;;31.25;6.68;;;;;;;43.77;23.50;98922.47;5047183;28;20021;-52
2021/08/12 07:56:09;;;;;;;26.27;8.75;;;;;;;44.47;21.93;98921.69;5031829;28;20115;-53
2021/08/12 07:58:37;;;;;;;23.42;7.32;;;;;;;45.29;21.16;98910.94;5031814;28;20097;-52
2021/08/12 08:01:03;;;;;;;28.45;6.32;;;;;;;45.67;20.79;98916.03;5031844;28;20037;-53
2021/08/12 08:03:29;;;;;;;135.75;122.13;;;;;;;45.41;21.24;98909.50;5047088;28;20025;-53
2021/08/12 08:05:55;;;;;;;145.18;111.47;;;;;;;45.40;20.97;98916.25;5031715;28;20028;-52
2021/08/12 08:08:20;;;;;;;92.05;67.22;;;;;;;45.62;20.58;98916.50;5047053;28;20033;-53
2021/08/12 08:10:46;;;;;;;84.50;75.70;;;;;;;45.50;20.21;98911.66;5047069;28;20037;-53
2021/08/12 08:13:12;;;;;;;44.67;31.55;;;;;;;45.00;21.02;98914.34;5047037;28;20125;-53
2021/08/12 08:15:37;;;;;;;36.83;26.10;;;;;;;45.00;21.45;98906.03;5030577;28;20033;-52
2021/08/12 08:18:03;;;;;;;54.50;42.47;;;;;;;45.00;21.48;98910.78;5032035;28;20033;-52
2021/08/12 08:20:30;;;;;;;30.90;19.95;;;;;;;44.56;21.99;98905.31;5013956;28;20104;-53
2021/08/12 08:23:04;;;;;;;16.65;14.35;;;;;;;44.42;21.95;98911.88;5031423;28;20047;-52
2021/08/12 08:25:31;;;;;;;20.08;13.75;;;;;;;44.22;21.54;98900.78;5031571;28;20072;-53
2021/08/12 08:27:57;;;;;;;37.15;30.92;;;;;;;43.88;22.24;98895.44;5031585;28;20022;-52
2021/08/12 08:30:23;;;;;;;54.85;43.75;;;;;;;43.63;22.59;98893.84;5046803;28;20029;-52
2021/08/12 08:32:49;;;;;;;42.20;29.52;;;;;;;43.41;23.31;98895.38;5030177;28;20029;-52
2021/08/12 08:35:17;;;;;;;18.23;11.82;;;;;;;43.27;23.41;98888.09;5046863;28;20081;-52
2021/08/12 08:37:43;;;;;;;11.40;7.70;;;;;;;43.49;22.39;98877.50;5046882;28;20033;-53
2021/08/12 08:40:09;;;;;;;12.10;9.15;;;;;;;43.77;22.25;98879.03;5031480;28;20014;-52
2021/08/12 08:42:38;;;;;;;13.85;12.10;;;;;;;44.00;21.82;98881.00;5031483;28;20092;-51
2021/08/12 08:45:05;;;;;;;27.55;21.73;;;;;;;44.27;21.98;98875.41;5031294;28;20028;-52
2021/08/12 08:47:33;;;;;;;30.73;19.17;;;;;;;44.19;20.76;98884.25;5034550;28;20108;-52
2021/08/12 08:50:00;;;;;;;35.75;16.30;;;;;;;43.84;20.72;98883.66;5033988;28;20036;-52
2021/08/12 08:52:28;;;;;;;26.15;22.10;;;;;;;43.14;21.95;98878.75;5035257;28;20033;-53
2021/08/12 08:54:54;;;;;;;46.80;38.67;;;;;;;42.86;21.71;98877.94;5050401;28;20032;-52
2021/08/12 08:57:20;;;;;;;38.88;34.78;;;;;;;43.19;21.66;98876.31;5033863;28;20088;-53
2021/08/12 08:59:49;;;;;;;24.13;20.10;;;;;;;43.13;21.73;98880.75;5035411;28;20372;-53
2021/08/12 09:02:15;;;;;;;19.15;11.68;;;;;;;42.93;22.30;98883.38;5033761;28;20048;-52
2021/08/12 09:04:40;;;;;;;10.45;6.95;;;;;;;42.63;22.17;98873.88;5034946;28;20022;-53
2021/08/12 09:07:08;;;;;;;20.30;9.95;;;;;;;41.74;22.77;98870.00;5034824;28;20029;-51
2021/08/12 09:09:37;;;;;;;267.45;225.43;;;;;;;41.32;23.99;98869.88;5035006;28;20511;-52
2021/08/12 09:12:05;;;;;;;261.58;196.90;;;;;;;41.23;23.64;98868.75;5034838;28;20076;-53
2021/08/12 09:14:40;;;;;;;152.50;106.32;;;;;;;40.76;24.39;98870.94;5033610;28;20042;-52
2021/08/12 09:17:18;;;;;;;157.88;116.88;;;;;;;40.98;24.14;98872.41;5034699;28;20075;-54
2021/08/12 09:20:26;;;;;;;58.92;38.53;;;;;;;41.40;23.91;98881.63;5050055;28;20026;-52
2021/08/12 09:23:07;;;;;;;61.25;41.92;;;;;;;41.39;22.62;98869.03;5025452;28;20057;-52
2021/08/12 09:25:47;;;;;;;35.00;22.45;;;;;;;40.46;24.06;98880.44;5034543;28;20072;-52
2021/08/12 09:28:24;;;;;;;31.67;19.25;;;;;;;40.83;23.94;98884.66;5034567;28;20029;-53
2021/08/12 09:31:01;;;;;;;12.38;8.20;;;;;;;41.67;22.86;98883.81;5034832;28;20029;-53
2021/08/12 09:33:28;;;;;;;20.08;9.73;;;;;;;42.54;21.98;98894.88;5034797;28;20022;-53
2021/08/12 09:35:54;;;;;;;18.40;10.55;;;;;;;42.81;21.79;98892.97;5034398;28;20083;-51
2021/08/12 09:38:23;;;;;;;10.75;6.25;;;;;;;43.23;21.24;98890.09;5034600;28;20029;-52
2021/08/12 09:40:57;;;;;;;23.55;9.50;;;;;;;43.26;20.49;98880.94;5034261;28;20040;-53
2021/08/12 09:43:30;;;;;;;11.13;4.70;;;;;;;43.30;20.25;98887.22;5034282;28;20032;-54
2021/08/12 09:45:56;;;;;;;11.77;4.80;;;;;;;43.85;19.52;98882.44;5034508;28;20079;-52
2021/08/12 09:48:23;;;;;;;11.07;6.95;;;;;;;43.70;19.83;98875.59;5034272;28;20495;-53
2021/08/12 09:51:06;;;;;;;11.60;7.15;;;;;;;42.79;20.63;98875.25;5034144;28;20033;-53
2021/08/12 09:53:34;;;;;;;9.00;4.35;;;;;;;42.74;21.02;98878.47;5032785;28;20053;-53
2021/08/12 09:56:10;;;;;;;8.15;4.88;;;;;;;42.91;20.99;98871.97;5034138;28;20029;-54
2021/08/12 09:58:38;;;;;;;11.43;4.20;;;;;;;42.93;20.76;98880.63;5049063;28;20030;-53
2021/08/12 10:01:18;;;;;;;9.43;3.85;;;;;;;43.32;20.09;98887.59;5033964;28;20449;-53
2021/08/12 10:03:45;;;;;;;7.90;3.78;;;;;;;43.37;20.23;98884.38;5033913;28;20107;-53
2021/08/12 10:06:27;;;;;;;9.45;4.10;;;;;;;43.12;20.12;98878.41;5032511;28;20512;-53
2021/08/12 10:08:53;;;;;;;6.70;3.60;;;;;;;42.81;20.76;98881.16;5033973;28;20407;-53
2021/08/12 10:11:26;;;;;;;7.88;4.13;;;;;;;42.08;21.73;98870.09;5032583;28;20014;-53
2021/08/12 10:13:57;;;;;;;14.55;7.07;;;;;;;41.86;22.73;98880.53;5034048;28;20030;-53
2021/08/12 10:16:25;;;;;;;13.68;7.32;;;;;;;41.63;23.32;98872.81;5033715;28;20105;-51
2021/08/12 10:18:53;;;;;;;16.23;5.82;;;;;;;42.47;23.17;98873.66;5033679;28;20033;-53
2021/08/12 10:21:19;;;;;;;14.02;6.05;;;;;;;43.18;22.60;98863.69;5048898;28;20075;-52
2021/08/12 10:23:48;;;;;;;9.55;4.85;;;;;;;44.06;22.04;98864.69;5033407;28;20049;-52
2021/08/12 10:26:16;;;;;;;6.57;3.97;;;;;;;45.05;20.98;98871.47;5033409;28;20028;-53
2021/08/12 10:28:44;;;;;;;9.55;4.07;;;;;;;45.32;20.72;98864.94;5033544;28;20032;-53
2021/08/12 10:31:16;;;;;;;9.15;4.15;;;;;;;45.57;20.21;98867.91;5048721;28;20087;-53
2021/08/12 10:33:43;;;;;;;9.70;4.00;;;;;;;45.80;19.45;98860.63;5048731;28;20493;-52
2021/08/12 10:36:09;;;;;;;13.90;5.45;;;;;;;45.93;19.73;98860.72;5033349;28;20510;-52
2021/08/12 10:38:39;;;;;;;11.48;3.83;;;;;;;45.78;19.98;98855.53;5033330;28;20028;-53
2021/08/12 10:41:06;;;;;;;15.63;4.82;;;;;;;46.09;19.50;98849.59;5048526;28;20025;-52
2021/08/12 10:43:33;;;;;;;11.27;4.55;;;;;;;46.32;19.17;98843.00;5033264;28;20025;-53
2021/08/12 10:46:01;;;;;;;10.30;5.00;;;;;;;46.92;18.75;98848.03;5032958;28;20067;-53
2021/08/12 10:48:29;;;;;;;10.75;5.00;;;;;;;47.59;18.26;98849.13;5033053;28;20026;-54
2021/08/12 10:51:06;;;;;;;9.50;4.97;;;;;;;47.16;18.29;98842.16;5048302;28;20037;-53
2021/08/12 10:53:33;;;;;;;13.15;6.35;;;;;;;46.55;18.83;98844.00;5033293;28;20491;-52
2021/08/12 10:56:03;;;;;;;10.20;5.13;;;;;;;45.76;19.66;98855.19;5032987;28;20025;-54
2021/08/12 10:58:33;;;;;;;10.40;4.93;;;;;;;44.73;20.67;98852.75;5031665;28;20459;-54
2021/08/12 11:01:01;;;;;;;13.32;5.68;;;;;;;43.93;21.77;98852.69;5032865;28;20025;-53
2021/08/12 11:03:33;;;;;;;13.85;4.82;;;;;;;43.47;22.40;98855.03;5048184;28;20025;-53
2021/08/12 11:06:15;;;;;;;12.32;5.43;;;;;;;43.28;22.78;98848.19;5048046;28;20108;-52
2021/08/12 11:08:51;;;;;;;7.60;3.92;;;;;;;43.05;23.09;98851.66;5030765;28;20442;-53
2021/08/12 11:11:23;;;;;;;8.52;3.75;;;;;;;43.54;22.33;98848.59;5047989;28;20574;-53
2021/08/12 11:13:54;;;;;;;12.80;4.50;;;;;;;44.11;21.83;98847.63;5032680;28;20025;-53
2021/08/12 11:16:21;;;;;;;5.55;3.88;;;;;;;44.23;22.10;98849.78;5032663;28;20026;-52
2021/08/12 11:18:49;;;;;;;8.45;3.60;;;;;;;44.45;21.66;98849.34;5047877;28;20034;-53
2021/08/12 11:21:30;;;;;;;8.63;4.70;;;;;;;44.91;21.25;98844.09;5047745;28;20032;-52
2021/08/12 11:23:58;;;;;;;6.97;4.00;;;;;;;44.91;21.13;98842.09;5047439;28;20053;-53
2021/08/12 11:26:24;;;;;;;7.40;4.20;;;;;;;45.03;21.39;98846.97;5030986;28;20045;-53